Darstellungsparameter: Aktuell verwendete Einstellungen:
Skalierung der Graphiken ... ?
xyx+y,   Skalierungsfaktor:      Skalierung: Modus: x, Faktor: 1
Darstellungszeitraum ... ?
Vom - - bis: - -   Zeitraum: 04.02.2019 - 04.02.2019
Min/Max/Avg-Anzeige ... ?
Zeige MMA aktuell
Zeige MMA Monat
Zeige MMA alles
Zeige --A aktuell
Zeige --A Monat
Zeige --A alles
Keine MMA-Anzeige
MMA:
Keine MMA-Graphiken
MMA-Basis: 04.02.2019 - 04.02.2019
Quicknavigation für Darstellung... ?
Tage:      1T, 2T, 3T, 5T -1T -2T -3T -5T +1T +2T +3T +5T
Wochen: 1W, 2W, 3W -1W -2W -3W +1W +2W +3W
Monate: 1M, 3M, 6M -1M -3M -6M +1M +3M +6M
Jahre:    1J, 3J, 5J, 10J -1J -3J -5J -10J +1J +3J +5J +10J
Nutze für die Darstellung ... ?
Originaldaten oder Mittelwerte auf ...
Stundenbasis Tagesbasis Wochenbasis
Monatsbasis Jahresbasis      Datenbasis: Original-Daten
Darstellen als:
Statistik (Auto) Statistik J:M      Darstellung:
Zur Graphik,    zurück zur Übersicht aller Sensoren.
 
Tabellarische Datenbersicht: ?
 
Sensor: Nr:Datum:Temp:Feuchte:Taupunkt:
Aussen-T/F 1 04-02-2019 00:00:00 -0.1 C 93 % -1.09 C
2 04-02-2019 00:05:00 -0.2 C 93 % -1.19 C
3 04-02-2019 00:10:00 -0.2 C 93 % -1.19 C
4 04-02-2019 00:15:00 -0.2 C 93 % -1.19 C
5 04-02-2019 00:20:00 -0.3 C 94 % -1.15 C
6 04-02-2019 00:25:00 -0.3 C 94 % -1.15 C
7 04-02-2019 00:30:00 -0.3 C 94 % -1.15 C
8 04-02-2019 00:35:00 -0.4 C 94 % -1.25 C
9 04-02-2019 00:40:00 -0.4 C 94 % -1.25 C
10 04-02-2019 00:45:00 -0.4 C 94 % -1.25 C
11 04-02-2019 00:50:00 -0.5 C 94 % -1.34 C
12 04-02-2019 00:55:00 -0.5 C 94 % -1.34 C
13 04-02-2019 01:00:00 -0.5 C 94 % -1.34 C
14 04-02-2019 01:05:00 -0.4 C 95 % -1.1 C
15 04-02-2019 01:10:00 -0.3 C 95 % -1 C
16 04-02-2019 01:15:00 -0.2 C 95 % -0.9 C
17 04-02-2019 01:20:00 0 C 95 % -0.7 C
18 04-02-2019 01:25:00 0.1 C 95 % -0.6 C
19 04-02-2019 01:30:00 0.1 C 95 % -0.6 C
20 04-02-2019 01:35:00 0.1 C 95 % -0.6 C
21 04-02-2019 01:40:00 0.1 C 95 % -0.6 C
22 04-02-2019 01:45:00 0.1 C 95 % -0.6 C
23 04-02-2019 01:50:00 0.1 C 95 % -0.6 C
24 04-02-2019 01:55:00 0.1 C 95 % -0.6 C
25 04-02-2019 02:00:00 0.1 C 95 % -0.6 C
Sensor: Nr:Datum:Temp:Feuchte:Taupunkt:
Aussen-T/F 26 04-02-2019 02:05:00 0.1 C 95 % -0.6 C
27 04-02-2019 02:10:00 0.1 C 95 % -0.6 C
28 04-02-2019 02:15:00 0.1 C 94 % -0.75 C
29 04-02-2019 02:20:00 0.1 C 94 % -0.75 C
30 04-02-2019 02:25:00 0.1 C 95 % -0.6 C
31 04-02-2019 02:30:00 0.1 C 94 % -0.75 C
32 04-02-2019 02:35:00 0 C 94 % -0.85 C
33 04-02-2019 02:40:00 -0.1 C 94 % -0.95 C
34 04-02-2019 02:45:00 -0.2 C 94 % -1.05 C
35 04-02-2019 02:50:00 -0.2 C 94 % -1.05 C
36 04-02-2019 02:55:00 -0.2 C 94 % -1.05 C
37 04-02-2019 03:00:00 -0.3 C 94 % -1.15 C
38 04-02-2019 03:05:00 -0.2 C 94 % -1.05 C
39 04-02-2019 03:10:00 -0.2 C 94 % -1.05 C
40 04-02-2019 03:15:00 -0.2 C 94 % -1.05 C
41 04-02-2019 03:20:00 -0.2 C 94 % -1.05 C
42 04-02-2019 03:25:00 -0.2 C 94 % -1.05 C
43 04-02-2019 03:30:00 -0.2 C 94 % -1.05 C
44 04-02-2019 03:35:00 -0.2 C 94 % -1.05 C
45 04-02-2019 03:40:00 -0.2 C 94 % -1.05 C
46 04-02-2019 03:45:00 -0.1 C 94 % -0.95 C
47 04-02-2019 03:50:00 -0.2 C 94 % -1.05 C
48 04-02-2019 03:55:00 -0.2 C 94 % -1.05 C
49 04-02-2019 04:00:00 -0.3 C 94 % -1.15 C
50 04-02-2019 04:05:00 -0.3 C 94 % -1.15 C
Sensor: Nr:Datum:Temp:Feuchte:Taupunkt:
Aussen-T/F 51 04-02-2019 04:10:00 -0.3 C 94 % -1.15 C
52 04-02-2019 04:15:00 -0.4 C 94 % -1.25 C
53 04-02-2019 04:20:00 -0.5 C 94 % -1.34 C
54 04-02-2019 04:25:00 -0.6 C 94 % -1.44 C
55 04-02-2019 04:30:00 -0.6 C 94 % -1.44 C
56 04-02-2019 04:35:00 -0.6 C 94 % -1.44 C
57 04-02-2019 04:40:00 -0.6 C 94 % -1.44 C
58 04-02-2019 04:45:00 -0.5 C 94 % -1.34 C
59 04-02-2019 04:50:00 -0.5 C 94 % -1.34 C
60 04-02-2019 04:55:00 -0.5 C 95 % -1.2 C
61 04-02-2019 05:00:00 -0.4 C 94 % -1.25 C
62 04-02-2019 05:05:00 -0.4 C 95 % -1.1 C
63 04-02-2019 05:10:00 -0.3 C 95 % -1 C
64 04-02-2019 05:15:00 -0.2 C 95 % -0.9 C
65 04-02-2019 05:20:00 -0.2 C 95 % -0.9 C
66 04-02-2019 05:25:00 -0.1 C 95 % -0.8 C
67 04-02-2019 05:30:00 0.1 C 95 % -0.6 C
68 04-02-2019 05:35:00 0.1 C 95 % -0.6 C
69 04-02-2019 05:40:00 0.2 C 95 % -0.5 C
70 04-02-2019 05:45:00 0.2 C 95 % -0.5 C
71 04-02-2019 05:50:00 0.3 C 95 % -0.4 C
72 04-02-2019 05:55:00 0.3 C 95 % -0.4 C
73 04-02-2019 06:00:00 0.3 C 95 % -0.4 C
74 04-02-2019 06:05:00 0.3 C 95 % -0.4 C
75 04-02-2019 06:10:00 0.3 C 95 % -0.4 C
Sensor: Nr:Datum:Temp:Feuchte:Taupunkt:
Aussen-T/F 76 04-02-2019 06:15:00 0.3 C 95 % -0.4 C
77 04-02-2019 06:20:00 0.4 C 95 % -0.31 C
78 04-02-2019 06:25:00 0.4 C 95 % -0.31 C
79 04-02-2019 06:30:00 0.4 C 95 % -0.31 C
80 04-02-2019 06:35:00 0.4 C 95 % -0.31 C
81 04-02-2019 06:40:00 0.4 C 95 % -0.31 C
82 04-02-2019 06:45:00 0.4 C 95 % -0.31 C
83 04-02-2019 06:50:00 0.4 C 95 % -0.31 C
84 04-02-2019 06:55:00 0.4 C 95 % -0.31 C
85 04-02-2019 07:00:00 0.4 C 95 % -0.31 C
86 04-02-2019 07:05:00 0.4 C 95 % -0.31 C
87 04-02-2019 07:10:00 0.5 C 95 % -0.21 C
88 04-02-2019 07:15:00 0.5 C 95 % -0.21 C
89 04-02-2019 07:20:00 0.5 C 95 % -0.21 C
90 04-02-2019 07:25:00 0.6 C 95 % -0.11 C
91 04-02-2019 07:30:00 0.5 C 95 % -0.21 C
92 04-02-2019 07:35:00 0.5 C 95 % -0.21 C
93 04-02-2019 07:40:00 0.5 C 95 % -0.21 C
94 04-02-2019 07:45:00 0.6 C 95 % -0.11 C
95 04-02-2019 07:50:00 0.6 C 94 % -0.25 C
96 04-02-2019 07:55:00 0.6 C 95 % -0.11 C
97 04-02-2019 08:00:00 0.6 C 95 % -0.11 C
98 04-02-2019 08:05:00 0.6 C 95 % -0.11 C
99 04-02-2019 08:10:00 0.6 C 95 % -0.11 C
100 04-02-2019 08:15:00 0.6 C 95 % -0.11 C
Sensor: Nr:Datum:Temp:Feuchte:Taupunkt:
Aussen-T/F 101 04-02-2019 08:20:00 0.7 C 95 % -0.01 C
102 04-02-2019 08:25:00 0.7 C 94 % -0.15 C
103 04-02-2019 08:30:00 0.7 C 94 % -0.15 C
104 04-02-2019 08:35:00 0.7 C 94 % -0.15 C
105 04-02-2019 08:40:00 0.8 C 94 % -0.05 C
106 04-02-2019 08:45:00 0.8 C 94 % -0.05 C
107 04-02-2019 08:50:00 0.8 C 94 % -0.05 C
108 04-02-2019 08:55:00 0.8 C 94 % -0.05 C
109 04-02-2019 09:00:00 0.8 C 94 % -0.05 C
110 04-02-2019 09:05:00 0.8 C 94 % -0.05 C
111 04-02-2019 09:10:00 0.7 C 94 % -0.15 C
112 04-02-2019 09:15:00 0.7 C 94 % -0.15 C
113 04-02-2019 09:20:00 0.6 C 93 % -0.4 C
114 04-02-2019 09:25:00 0.6 C 94 % -0.25 C
115 04-02-2019 09:30:00 0.5 C 94 % -0.35 C
116 04-02-2019 09:35:00 0.5 C 94 % -0.35 C
117 04-02-2019 09:40:00 0.5 C 94 % -0.35 C
118 04-02-2019 09:45:00 0.6 C 94 % -0.25 C
119 04-02-2019 09:50:00 0.5 C 94 % -0.35 C
120 04-02-2019 09:55:00 0.5 C 94 % -0.35 C
121 04-02-2019 10:00:00 0.6 C 94 % -0.25 C
122 04-02-2019 10:05:00 0.6 C 94 % -0.25 C
123 04-02-2019 10:10:00 0.6 C 94 % -0.25 C
124 04-02-2019 10:15:00 0.7 C 94 % -0.15 C
125 04-02-2019 10:20:00 0.8 C 94 % -0.05 C
Sensor: Nr:Datum:Temp:Feuchte:Taupunkt:
Aussen-T/F 126 04-02-2019 10:25:00 0.8 C 95 % 0.09 C
127 04-02-2019 10:30:00 0.9 C 94 % 0.05 C
128 04-02-2019 10:35:00 1 C 94 % 0.15 C
129 04-02-2019 10:40:00 1.1 C 94 % 0.24 C
130 04-02-2019 10:45:00 1.2 C 94 % 0.34 C
131 04-02-2019 10:50:00 1.2 C 94 % 0.34 C
132 04-02-2019 10:55:00 1.3 C 94 % 0.44 C
133 04-02-2019 11:00:00 1.4 C 94 % 0.54 C
134 04-02-2019 11:05:00 1.6 C 93 % 0.59 C
135 04-02-2019 11:10:00 1.7 C 93 % 0.69 C
136 04-02-2019 11:15:00 1.8 C 93 % 0.79 C
137 04-02-2019 11:20:00 1.9 C 92 % 0.74 C
138 04-02-2019 11:25:00 2 C 91 % 0.69 C
139 04-02-2019 11:30:00 2.1 C 91 % 0.79 C
140 04-02-2019 11:35:00 2.2 C 90 % 0.73 C
141 04-02-2019 11:40:00 2.3 C 90 % 0.83 C
142 04-02-2019 11:45:00 2.4 C 90 % 0.93 C
143 04-02-2019 11:50:00 2.5 C 89 % 0.88 C
144 04-02-2019 11:55:00 2.6 C 89 % 0.97 C
145 04-02-2019 12:00:00 2.7 C 89 % 1.07 C
146 04-02-2019 12:05:00 2.9 C 89 % 1.27 C
147 04-02-2019 12:10:00 3.1 C 88 % 1.31 C
148 04-02-2019 12:15:00 3.2 C 88 % 1.41 C
149 04-02-2019 12:20:00 3.3 C 85 % 1.03 C
150 04-02-2019 12:25:00 3.6 C 82 % 0.82 C
Sensor: Nr:Datum:Temp:Feuchte:Taupunkt:
Aussen-T/F 151 04-02-2019 12:30:00 3.9 C 80 % 0.77 C
152 04-02-2019 12:35:00 4.2 C 78 % 0.71 C
153 04-02-2019 12:40:00 4.3 C 77 % 0.63 C
154 04-02-2019 12:45:00 4.5 C 77 % 0.83 C
155 04-02-2019 12:50:00 4.6 C 75 % 0.56 C
156 04-02-2019 12:55:00 4.7 C 74 % 0.47 C
157 04-02-2019 13:00:00 4.8 C 74 % 0.57 C
158 04-02-2019 13:05:00 4.8 C 73 % 0.38 C
159 04-02-2019 13:10:00 4.8 C 74 % 0.57 C
160 04-02-2019 13:15:00 4.8 C 73 % 0.38 C
161 04-02-2019 13:20:00 4.8 C 72 % 0.19 C
162 04-02-2019 13:25:00 4.8 C 72 % 0.19 C
163 04-02-2019 13:30:00 4.8 C 72 % 0.19 C
164 04-02-2019 13:35:00 4.7 C 72 % 0.09 C
165 04-02-2019 13:40:00 4.7 C 73 % 0.28 C
166 04-02-2019 13:45:00 4.7 C 72 % 0.09 C
167 04-02-2019 13:50:00 4.8 C 72 % 0.19 C
168 04-02-2019 13:55:00 4.9 C 72 % 0.29 C
169 04-02-2019 14:00:00 4.9 C 71 % 0.09 C
170 04-02-2019 14:05:00 5 C 72 % 0.38 C
171 04-02-2019 14:10:00 5.2 C 71 % 0.38 C
172 04-02-2019 14:15:00 5.2 C 69 % -0.01 C
173 04-02-2019 14:20:00 5.3 C 69 % 0.09 C
174 04-02-2019 14:25:00 5.4 C 70 % 0.38 C
175 04-02-2019 14:30:00 5.4 C 67 % -0.22 C
Sensor: Nr:Datum:Temp:Feuchte:Taupunkt:
Aussen-T/F 176 04-02-2019 14:35:00 5.4 C 67 % -0.22 C
177 04-02-2019 14:40:00 5.4 C 67 % -0.22 C
178 04-02-2019 14:45:00 5.5 C 66 % -0.33 C
179 04-02-2019 14:50:00 5.5 C 67 % -0.13 C
180 04-02-2019 14:55:00 5.5 C 66 % -0.33 C
181 04-02-2019 15:00:00 5.4 C 66 % -0.43 C
182 04-02-2019 15:05:00 5.4 C 66 % -0.43 C
183 04-02-2019 15:10:00 5.4 C 67 % -0.22 C
184 04-02-2019 15:15:00 5.3 C 68 % -0.12 C
185 04-02-2019 15:20:00 5.3 C 66 % -0.52 C
186 04-02-2019 15:25:00 5.3 C 66 % -0.52 C
187 04-02-2019 15:30:00 5.3 C 65 % -0.73 C
188 04-02-2019 15:35:00 5.3 C 67 % -0.32 C
189 04-02-2019 15:40:00 5.3 C 68 % -0.12 C
190 04-02-2019 15:45:00 5.3 C 68 % -0.12 C
191 04-02-2019 15:50:00 5.3 C 68 % -0.12 C
192 04-02-2019 15:55:00 5.3 C 66 % -0.52 C
193 04-02-2019 16:00:00 5.3 C 67 % -0.32 C
194 04-02-2019 16:05:00 5.3 C 69 % 0.09 C
195 04-02-2019 16:10:00 5.3 C 70 % 0.28 C
196 04-02-2019 16:15:00 5.3 C 68 % -0.12 C
197 04-02-2019 16:20:00 5.3 C 67 % -0.32 C
198 04-02-2019 16:25:00 5.2 C 70 % 0.19 C
199 04-02-2019 16:30:00 5.2 C 73 % 0.77 C
200 04-02-2019 16:35:00 5 C 73 % 0.57 C
Sensor: Nr:Datum:Temp:Feuchte:Taupunkt:
Aussen-T/F 201 04-02-2019 16:40:00 4.8 C 74 % 0.57 C
202 04-02-2019 16:45:00 4.7 C 76 % 0.84 C
203 04-02-2019 16:50:00 4.4 C 77 % 0.73 C
204 04-02-2019 16:55:00 4.2 C 78 % 0.71 C
205 04-02-2019 17:00:00 3.9 C 79 % 0.6 C
206 04-02-2019 17:05:00 3.6 C 81 % 0.65 C
207 04-02-2019 17:10:00 3.3 C 81 % 0.36 C
208 04-02-2019 17:15:00 3.1 C 82 % 0.33 C
209 04-02-2019 17:20:00 2.9 C 83 % 0.31 C
210 04-02-2019 17:25:00 2.7 C 84 % 0.27 C
211 04-02-2019 17:30:00 2.6 C 84 % 0.18 C
212 04-02-2019 17:35:00 2.4 C 85 % 0.14 C
213 04-02-2019 17:40:00 2.3 C 85 % 0.04 C
214 04-02-2019 17:45:00 2.2 C 85 % -0.05 C
215 04-02-2019 17:50:00 2.1 C 86 % 0.01 C
216 04-02-2019 17:55:00 1.9 C 86 % -0.19 C
217 04-02-2019 18:00:00 1.8 C 86 % -0.29 C
218 04-02-2019 18:05:00 1.7 C 87 % -0.23 C
219 04-02-2019 18:10:00 1.6 C 87 % -0.32 C
220 04-02-2019 18:15:00 1.6 C 87 % -0.32 C
221 04-02-2019 18:20:00 1.5 C 87 % -0.42 C
222 04-02-2019 18:25:00 1.4 C 87 % -0.52 C
223 04-02-2019 18:30:00 1.3 C 87 % -0.62 C
224 04-02-2019 18:35:00 1.3 C 88 % -0.46 C
225 04-02-2019 18:40:00 1.2 C 88 % -0.56 C
Sensor: Nr:Datum:Temp:Feuchte:Taupunkt:
Aussen-T/F 226 04-02-2019 18:45:00 1.2 C 88 % -0.56 C
227 04-02-2019 18:50:00 1.1 C 89 % -0.51 C
228 04-02-2019 18:55:00 1.1 C 89 % -0.51 C
229 04-02-2019 19:00:00 1.1 C 89 % -0.51 C
230 04-02-2019 19:05:00 1.1 C 89 % -0.51 C
231 04-02-2019 19:10:00 1.2 C 89 % -0.41 C
232 04-02-2019 19:15:00 1.2 C 89 % -0.41 C
233 04-02-2019 19:20:00 1.3 C 90 % -0.15 C
234 04-02-2019 19:25:00 1.3 C 90 % -0.15 C
235 04-02-2019 19:30:00 1.4 C 90 % -0.06 C
236 04-02-2019 19:35:00 1.5 C 90 % 0.04 C
237 04-02-2019 19:40:00 1.6 C 90 % 0.14 C
238 04-02-2019 19:45:00 1.7 C 89 % 0.09 C
239 04-02-2019 19:50:00 1.7 C 90 % 0.24 C
240 04-02-2019 19:55:00 1.8 C 90 % 0.34 C
241 04-02-2019 20:00:00 1.8 C 89 % 0.19 C
242 04-02-2019 20:05:00 1.9 C 89 % 0.28 C
243 04-02-2019 20:10:00 1.9 C 89 % 0.28 C
244 04-02-2019 20:15:00 1.9 C 89 % 0.28 C
245 04-02-2019 20:20:00 1.9 C 88 % 0.13 C
246 04-02-2019 20:25:00 2 C 88 % 0.23 C
247 04-02-2019 20:30:00 2 C 88 % 0.23 C
248 04-02-2019 20:35:00 2 C 88 % 0.23 C
249 04-02-2019 20:40:00 2 C 88 % 0.23 C
250 04-02-2019 20:45:00 2.2 C 86 % 0.11 C
Sensor: Nr:Datum:Temp:Feuchte:Taupunkt:
Aussen-T/F 251 04-02-2019 20:50:00 2.2 C 85 % -0.05 C
252 04-02-2019 20:55:00 2.3 C 84 % -0.12 C
253 04-02-2019 21:00:00 2.3 C 83 % -0.28 C
254 04-02-2019 21:05:00 2.4 C 83 % -0.18 C
255 04-02-2019 21:10:00 2.5 C 83 % -0.09 C
256 04-02-2019 21:15:00 2.6 C 83 % 0.01 C
257 04-02-2019 21:20:00 2.7 C 82 % -0.06 C
258 04-02-2019 21:25:00 2.7 C 83 % 0.11 C
259 04-02-2019 21:30:00 2.7 C 83 % 0.11 C
260 04-02-2019 21:35:00 2.7 C 83 % 0.11 C
261 04-02-2019 21:40:00 2.7 C 83 % 0.11 C
262 04-02-2019 21:45:00 2.7 C 82 % -0.06 C
263 04-02-2019 21:50:00 2.7 C 82 % -0.06 C
264 04-02-2019 21:55:00 2.8 C 81 % -0.13 C
265 04-02-2019 22:00:00 2.8 C 82 % 0.04 C
266 04-02-2019 22:05:00 2.9 C 83 % 0.31 C
267 04-02-2019 22:10:00 2.9 C 82 % 0.14 C
268 04-02-2019 22:15:00 2.9 C 83 % 0.31 C
269 04-02-2019 22:20:00 2.9 C 82 % 0.14 C
270 04-02-2019 22:25:00 2.9 C 83 % 0.31 C
271 04-02-2019 22:30:00 2.8 C 83 % 0.21 C
272 04-02-2019 22:35:00 2.8 C 82 % 0.04 C
273 04-02-2019 22:40:00 2.8 C 83 % 0.21 C
274 04-02-2019 22:45:00 2.8 C 83 % 0.21 C
275 04-02-2019 22:50:00 2.9 C 84 % 0.47 C
Sensor: Nr:Datum:Temp:Feuchte:Taupunkt:
Aussen-T/F 276 04-02-2019 22:55:00 2.8 C 85 % 0.54 C
277 04-02-2019 23:00:00 2.8 C 85 % 0.54 C
278 04-02-2019 23:05:00 2.8 C 85 % 0.54 C
279 04-02-2019 23:10:00 2.7 C 86 % 0.6 C
280 04-02-2019 23:15:00 2.7 C 85 % 0.44 C
281 04-02-2019 23:20:00 2.7 C 85 % 0.44 C
282 04-02-2019 23:25:00 2.7 C 86 % 0.6 C
283 04-02-2019 23:30:00 2.7 C 86 % 0.6 C
284 04-02-2019 23:35:00 2.7 C 85 % 0.44 C
285 04-02-2019 23:40:00 2.7 C 85 % 0.44 C
286 04-02-2019 23:45:00 2.7 C 85 % 0.44 C
287 04-02-2019 23:50:00 2.7 C 83 % 0.11 C
288 04-02-2019 23:55:00 2.7 C 83 % 0.11 C

Legende:
   Min
   Max


Maximal/Minimal-Werte vom 04.02.2019 - 04.02.2019

Sensor Min Max Avg
Temp
(Aussen-T/F)
-0.6 °C
04-02-2019  04:25:00
5.5 °C
04-02-2019  14:45:00
1.83 °C
Feuchte
(Aussen-T/F)
65 %
04-02-2019  15:30:00
95 %
04-02-2019  01:05:00
87.06 %
Taupunkt
(Aussen-T/F)
-1.44 C
04-02-2019  04:25:00
1.41 C
04-02-2019  12:15:00
-0.18 C

Die Daten stammen von einer Davis Vantage Pro 2 Wetter-Station und werden unter Linux mit der Software wview2wettercgi und aufbereitet. Alle Angaben erfolgen ohne Gewähr für ihre Vollständigkeit oder Richtigkeit.
Kontakt: Rainer Krienke krienke@uni-koblenz.de . Meine Webseiten an der Uni Koblenz oder privat.
Version: $Revision: 0.78 $